Killeen/Fort Hood, Texas
Current Conditions -  °F | °C
As of 7:58 PM on Saturday 20 Dec 2014 (Local Time) from KHLR Reporting Station
Overcast Overcast  
Wind Chill: 46°   Ceiling: 2400
Heat Index: 49°   Visibility: 8mi
Dew Point: 46°   Wind: 6mph
Humidity: 89%   Direction: 110°ESE
Pressure: 30.17"   Gusts: NA
Location:  31.15°N, 97.72°W
Report Text: KHLR 210158Z AUTO 11005KT 8SM FEW011 OVC024 09/08 A3017 RMK AO2 SLP217 T00930075
Loading
Personal Weather Stations






























Interactive Weather Map New forecast layout! Learn more

10-Day Weather Forecast

Advertisements
Track Severe Weather on mobile